Time;durP1;ratioP1;P1;durP2;ratioP2;P2;SDS_P1;SDS_P2;PMS_P1;PMS_P2;Temp;Humidity;BMP_temperature;BMP_pressure;BME280_temperature;BME280_humidity;BME280_pressure;Samples;Min_cycle;Max_cycle;Signal;HPM_P1;HPM_P2
2020/12/15 00:01:59;;;;;;;93.62;49.98;;;;;;;0.57;78.88;100540.50;126778;1098;26679;-77
2020/12/15 00:04:27;;;;;;;116.57;66.45;;;;;;;0.55;78.61;100537.09;126839;1098;23383;-77
2020/12/15 00:06:56;;;;;;;141.82;88.50;;;;;;;0.52;78.66;100532.82;126742;1098;23344;-79
2020/12/15 00:09:24;;;;;;;116.40;69.60;;;;;;;0.52;78.95;100529.29;126650;1098;23332;-79
2020/12/15 00:11:52;;;;;;;103.58;63.15;;;;;;;0.51;79.10;100536.50;126726;1098;23442;-77
2020/12/15 00:14:20;;;;;;;120.97;67.45;;;;;;;0.52;79.00;100535.51;126821;1098;23399;-79
2020/12/15 00:16:49;;;;;;;126.33;69.25;;;;;;;0.52;79.09;100530.14;126866;1098;23361;-77
2020/12/15 00:19:17;;;;;;;128.72;74.45;;;;;;;0.54;79.07;100533.55;126683;1098;26302;-77
2020/12/15 00:21:45;;;;;;;108.27;61.60;;;;;;;0.56;79.16;100520.86;126692;1098;23341;-78
2020/12/15 00:24:13;;;;;;;132.93;73.45;;;;;;;0.57;78.94;100525.24;126340;1100;23370;-77
2020/12/15 00:26:42;;;;;;;121.35;67.00;;;;;;;0.59;79.45;100527.81;126686;1098;23334;-77
2020/12/15 00:29:16;;;;;;;131.70;77.25;;;;;;;0.60;79.29;100525.02;126689;1098;23437;-78
2020/12/15 00:31:44;;;;;;;100.70;60.33;;;;;;;0.60;79.35;100522.33;126705;1098;23379;-77
2020/12/15 00:34:13;;;;;;;132.57;65.10;;;;;;;0.64;79.48;100530.12;126654;1098;23338;-78
2020/12/15 00:36:41;;;;;;;116.17;68.35;;;;;;;0.65;79.64;100527.32;126686;1098;23446;-77
2020/12/15 00:39:09;;;;;;;128.32;69.87;;;;;;;0.68;79.78;100527.06;126611;1099;23328;-78
2020/12/15 00:41:37;;;;;;;120.33;68.47;;;;;;;0.71;79.52;100531.36;126697;1098;23440;-78
2020/12/15 00:44:06;;;;;;;126.47;69.77;;;;;;;0.72;79.54;100530.37;126667;1098;23451;-77
2020/12/15 00:46:34;;;;;;;108.22;59.63;;;;;;;0.73;79.95;100529.41;126706;1098;23373;-78
2020/12/15 00:49:03;;;;;;;128.07;72.40;;;;;;;0.77;79.73;100545.14;126702;1100;23349;-78
2020/12/15 00:51:31;;;;;;;122.78;69.20;;;;;;;0.81;79.82;100540.35;126714;1099;23546;-77
2020/12/15 00:54:00;;;;;;;127.97;70.28;;;;;;;0.87;79.79;100547.07;126714;1098;23406;-78
2020/12/15 00:56:28;;;;;;;125.00;67.05;;;;;;;0.90;79.79;100539.63;126700;1098;23392;-76
2020/12/15 00:58:57;;;;;;;88.60;51.45;;;;;;;0.92;79.80;100529.62;126702;1098;26542;-78
2020/12/15 01:01:26;;;;;;;122.30;63.98;;;;;;;0.95;80.09;100537.41;126837;1099;23354;-77
2020/12/15 01:03:54;;;;;;;124.38;68.30;;;;;;;0.97;80.11;100540.83;126697;1098;25379;-77
2020/12/15 01:06:23;;;;;;;145.43;76.53;;;;;;;0.99;80.16;100538.87;126696;1098;23354;-78
2020/12/15 01:08:52;;;;;;;126.10;70.12;;;;;;;1.02;80.07;100540.45;126381;1100;23434;-77
2020/12/15 01:11:29;;;;;;;116.12;59.30;;;;;;;1.06;80.07;100543.75;126372;1098;23427;-77
2020/12/15 01:13:58;;;;;;;126.85;67.87;;;;;;;1.06;80.02;100539.22;126358;1100;23346;-77
2020/12/15 01:16:27;;;;;;;109.67;58.95;;;;;;;1.09;80.25;100543.48;126657;1098;23387;-77
2020/12/15 01:18:57;;;;;;;122.92;70.70;;;;;;;1.10;80.06;100542.52;126816;1098;23341;-77
2020/12/15 01:21:42;;;;;;;127.60;71.87;;;;;;;1.11;80.20;100536.15;126759;1098;23533;-77
2020/12/15 01:24:11;;;;;;;115.60;65.20;;;;;;;1.14;80.31;100550.20;126690;1098;23332;-77
2020/12/15 01:27:02;;;;;;;120.57;65.65;;;;;;;1.14;80.34;100547.51;126722;1098;26426;-76
2020/12/15 01:29:35;;;;;;;125.92;69.15;;;;;;;1.18;80.29;100548.13;126644;1098;23525;-77
2020/12/15 01:32:05;;;;;;;126.33;70.52;;;;;;;1.19;80.08;100547.12;126726;1098;23374;-77
2020/12/15 01:34:33;;;;;;;129.90;67.72;;;;;;;1.20;80.32;100540.78;126677;1098;23328;-79
2020/12/15 01:37:05;;;;;;;121.50;67.85;;;;;;;1.22;80.34;100554.95;126760;1098;26798;-78
2020/12/15 01:39:35;;;;;;;111.83;60.38;;;;;;;1.22;80.24;100549.58;126768;1098;23394;-76
2020/12/15 01:42:10;;;;;;;108.22;58.40;;;;;;;1.23;80.18;100552.12;126777;1098;23939;-77
2020/12/15 01:44:43;;;;;;;123.18;65.78;;;;;;;1.24;80.32;100553.00;126686;1099;23571;-77
2020/12/15 01:47:15;;;;;;;133.87;67.55;;;;;;;1.25;80.22;100549.31;126763;1098;23466;-78
2020/12/15 01:49:44;;;;;;;127.15;68.15;;;;;;;1.26;80.37;100545.66;126744;1098;23332;-77
2020/12/15 01:52:18;;;;;;;119.62;64.60;;;;;;;1.27;80.33;100547.35;126671;1098;25168;-76
2020/12/15 01:54:50;;;;;;;127.00;68.17;;;;;;;1.28;80.37;100541.02;126712;1098;25087;-77
2020/12/15 01:57:25;;;;;;;135.80;67.00;;;;;;;1.29;80.43;100540.02;126722;1098;26557;-77
2020/12/15 02:00:04;;;;;;;124.38;69.37;;;;;;;1.29;80.25;100542.70;126778;1098;24828;-77
2020/12/15 02:02:43;;;;;;;129.07;66.42;;;;;;;1.28;80.27;100535.64;126799;1098;23395;-77
2020/12/15 02:05:18;;;;;;;126.57;63.40;;;;;;;1.26;80.09;100528.66;126735;1098;23521;-77
2020/12/15 02:07:48;;;;;;;109.67;60.95;;;;;;;1.26;80.19;100539.41;126685;1099;25294;-78
2020/12/15 02:10:17;;;;;;;120.82;66.97;;;;;;;1.25;80.30;100533.19;126738;1098;23339;-77
2020/12/15 02:13:15;;;;;;;131.47;73.33;;;;;;;1.21;80.24;100520.98;126617;1099;26827;-78
2020/12/15 02:15:45;;;;;;;122.63;66.80;;;;;;;1.20;80.00;100530.03;126734;1098;23332;-77
2020/12/15 02:18:13;;;;;;;107.72;59.60;;;;;;;1.19;80.27;100533.69;126679;1098;26341;-78
2020/12/15 02:20:46;;;;;;;116.35;57.27;;;;;;;1.14;80.34;100522.48;126657;1098;27899;-78
2020/12/15 02:23:29;;;;;;;158.30;78.97;;;;;;;1.12;80.10;100524.44;126646;1099;23519;-78
2020/12/15 02:26:10;;;;;;;158.15;76.62;;;;;;;1.09;80.25;100519.30;126734;1098;23533;-78
2020/12/15 02:28:41;;;;;;;157.47;75.80;;;;;;;1.07;80.34;100518.57;126664;1098;26641;-78
2020/12/15 02:31:10;;;;;;;147.62;74.25;;;;;;;1.08;80.53;100525.66;126723;1098;23473;-77
2020/12/15 02:33:43;;;;;;;142.72;71.85;;;;;;;1.08;80.29;100514.92;126664;1098;25179;-77
2020/12/15 02:36:11;;;;;;;126.95;65.55;;;;;;;1.07;80.41;100519.45;126738;1098;23428;-75
2020/12/15 02:39:24;;;;;;;112.88;61.18;;;;;;;1.04;80.48;100513.46;126745;1098;28154;-77
2020/12/15 02:42:23;;;;;;;103.80;56.55;;;;;;;1.01;80.55;100510.05;126127;1101;23825;-76
2020/12/15 02:44:51;;;;;;;110.80;62.35;;;;;;;1.00;80.69;100508.36;126208;1101;23398;-75
2020/12/15 02:47:24;;;;;;;128.00;69.83;;;;;;;0.99;80.53;100503.10;126202;1102;23564;-76
2020/12/15 02:49:54;;;;;;;124.62;66.92;;;;;;;0.99;80.63;100506.63;126361;1101;24804;-77
2020/12/15 02:52:24;;;;;;;101.58;55.58;;;;;;;0.98;80.77;100509.44;126275;1101;23576;-78
2020/12/15 02:54:54;;;;;;;123.02;65.87;;;;;;;0.96;80.75;100506.90;126212;1101;23416;-77
2020/12/15 02:57:24;;;;;;;129.25;65.65;;;;;;;0.95;80.81;100507.86;126233;1101;23441;-76
2020/12/15 02:59:53;;;;;;;138.00;65.00;;;;;;;0.95;80.76;100499.80;126156;1101;28151;-76
2020/12/15 03:02:24;;;;;;;124.10;65.42;;;;;;;0.95;81.22;100512.39;126237;1101;23461;-76
2020/12/15 03:04:57;;;;;;;125.20;67.85;;;;;;;0.96;80.81;100509.58;126199;1101;23534;-76
2020/12/15 03:07:25;;;;;;;116.25;60.08;;;;;;;0.96;80.83;100514.95;126265;1101;23395;-76
2020/12/15 03:09:54;;;;;;;130.63;64.93;;;;;;;0.95;80.81;100510.55;126246;1101;26842;-77
2020/12/15 03:12:34;;;;;;;125.40;63.80;;;;;;;0.93;80.83;100507.13;126260;1101;24935;-78
2020/12/15 03:15:02;;;;;;;126.33;64.00;;;;;;;0.94;80.91;100507.98;126195;1101;23346;-78
2020/12/15 03:17:31;;;;;;;118.90;63.65;;;;;;;0.95;80.85;100520.45;126204;1102;26820;-77
2020/12/15 03:20:00;;;;;;;129.30;64.27;;;;;;;0.96;80.89;100506.02;126644;1099;25074;-76
2020/12/15 03:22:30;;;;;;;126.12;63.02;;;;;;;0.98;80.84;100513.00;126727;1098;23382;-76
2020/12/15 03:25:01;;;;;;;119.85;65.42;;;;;;;0.96;80.89;100506.90;126753;1098;24944;-76
2020/12/15 03:27:35;;;;;;;127.27;65.10;;;;;;;0.96;80.83;100512.27;126726;1098;23364;-76
2020/12/15 03:30:05;;;;;;;132.60;65.13;;;;;;;0.96;80.72;100501.52;126741;1098;26865;-77
2020/12/15 03:32:33;;;;;;;138.52;67.25;;;;;;;0.96;80.93;100493.47;126818;1098;23339;-76
2020/12/15 03:35:03;;;;;;;117.70;62.25;;;;;;;0.98;80.86;100504.06;126643;1099;23667;-77
2020/12/15 03:37:31;;;;;;;129.93;67.62;;;;;;;0.97;80.90;100500.53;126621;1098;23382;-77
2020/12/15 03:39:59;;;;;;;117.90;62.43;;;;;;;0.96;80.91;100501.52;126701;1098;23382;-77
2020/12/15 03:42:52;;;;;;;121.85;63.38;;;;;;;0.96;81.05;100495.28;126737;1098;23379;-77
2020/12/15 03:45:23;;;;;;;147.57;71.57;;;;;;;0.96;80.74;100493.47;126302;1099;23497;-76
2020/12/15 03:47:52;;;;;;;145.28;68.45;;;;;;;0.95;80.76;100497.11;126663;1098;23318;-76
2020/12/15 03:50:21;;;;;;;131.93;71.05;;;;;;;0.96;80.97;100498.84;126724;1098;23339;-76
2020/12/15 03:52:49;;;;;;;141.12;70.35;;;;;;;0.96;80.83;100500.64;126270;1098;23328;-77
2020/12/15 03:55:23;;;;;;;118.42;63.78;;;;;;;0.96;80.87;100503.34;126658;1098;23556;-77
2020/12/15 03:58:02;;;;;;;122.62;63.10;;;;;;;0.93;80.97;100506.28;126636;1099;23794;-76
2020/12/15 04:00:44;;;;;;;;;;;;;;;0.90;80.66;100511.92;126777;1098;23382;-76
2020/12/15 04:03:23;;;;;;;119.55;60.35;;;;;;;0.85;80.80;100506.90;126686;1099;21570;-77
2020/12/15 04:05:57;;;;;;;130.15;62.35;;;;;;;0.81;80.88;100506.31;126317;1099;23328;-76
2020/12/15 04:08:27;;;;;;;138.10;65.15;;;;;;;0.83;80.99;100511.54;126773;1099;23473;-77
2020/12/15 04:10:56;;;;;;;141.65;66.53;;;;;;;0.83;81.04;100495.42;126650;1098;23371;-76
2020/12/15 04:13:32;;;;;;;132.95;63.15;;;;;;;0.84;81.01;100502.52;126731;1098;23391;-77
2020/12/15 04:16:04;;;;;;;142.28;66.65;;;;;;;0.83;81.00;100498.11;126281;1099;26309;-76
2020/12/15 04:18:37;;;;;;;131.30;61.85;;;;;;;0.82;80.84;100499.11;126641;1098;26542;-77
2020/12/15 04:21:10;;;;;;;149.87;70.40;;;;;;;0.81;80.61;100494.70;126707;1098;23321;-77
2020/12/15 04:23:43;;;;;;;118.20;63.58;;;;;;;0.82;81.13;100499.11;126711;1098;27495;-78
2020/12/15 04:26:13;;;;;;;123.47;65.70;;;;;;;0.84;80.84;100501.68;126683;1098;26817;-76
2020/12/15 04:28:51;;;;;;;134.23;61.30;;;;;;;0.84;80.79;100497.16;126781;1099;23394;-76
2020/12/15 04:31:20;;;;;;;136.37;70.72;;;;;;;0.84;80.97;100491.78;126738;1098;26378;-77
2020/12/15 04:33:49;;;;;;;111.05;62.88;;;;;;;0.83;80.95;100495.42;126850;1098;27910;-76
2020/12/15 04:36:17;;;;;;;127.87;63.17;;;;;;;0.83;80.95;100495.42;126719;1098;23394;-76
2020/12/15 04:38:47;;;;;;;112.45;58.70;;;;;;;0.82;81.07;100501.80;126784;1098;23495;-77
2020/12/15 04:41:23;;;;;;;105.87;59.45;;;;;;;0.81;80.90;100492.89;126703;1098;26830;-76
2020/12/15 04:43:55;;;;;;;157.57;67.95;;;;;;;0.81;81.02;100497.38;127148;1098;26959;-77
2020/12/15 04:46:29;;;;;;;127.38;63.45;;;;;;;0.79;80.88;100499.34;127409;1099;23517;-77
2020/12/15 04:49:09;;;;;;;117.25;65.17;;;;;;;0.80;81.13;100501.06;126763;1098;23333;-77
2020/12/15 04:52:03;;;;;;;120.65;62.15;;;;;;;0.80;80.98;100501.06;127826;1099;26356;-77
2020/12/15 04:54:45;;;;;;;118.73;59.97;;;;;;;0.79;80.80;100500.22;126687;1098;23382;-75
2020/12/15 04:57:23;;;;;;;110.42;61.05;;;;;;;0.78;80.71;100501.18;126652;1098;27703;-77
2020/12/15 04:59:54;;;;;;;129.67;67.67;;;;;;;0.78;80.79;100501.18;126726;1099;23469;-75
2020/12/15 05:02:41;;;;;;;137.63;65.67;;;;;;;0.77;80.76;100501.33;126732;1098;23533;-76
2020/12/15 05:05:11;;;;;;;120.57;64.12;;;;;;;0.77;80.96;100501.33;126723;1098;23382;-76
2020/12/15 05:07:47;;;;;;;105.22;57.90;;;;;;;0.76;81.11;100499.60;126779;1098;23328;-76
2020/12/15 05:10:31;;;;;;;106.15;58.52;;;;;;;0.75;80.77;100503.28;126707;1099;23399;-76
2020/12/15 05:13:18;;;;;;;127.55;65.20;;;;;;;0.73;80.97;100503.39;126650;1098;23322;-76
2020/12/15 05:15:48;;;;;;;113.50;62.88;;;;;;;0.71;81.18;100502.66;126642;1099;23382;-76
2020/12/15 05:18:40;;;;;;;122.85;66.25;;;;;;;0.71;80.81;100512.56;126691;1098;23328;-77
2020/12/15 05:21:14;;;;;;;113.50;63.58;;;;;;;0.71;81.16;100507.19;126707;1098;26561;-76
2020/12/15 05:23:51;;;;;;;112.32;61.35;;;;;;;0.68;80.87;100502.89;126747;1098;23394;-76
2020/12/15 05:26:26;;;;;;;115.20;66.47;;;;;;;0.68;80.83;100512.80;126682;1099;26855;-77
2020/12/15 05:29:07;;;;;;;121.90;65.17;;;;;;;0.69;81.14;100515.36;126740;1098;23377;-77
2020/12/15 05:31:45;;;;;;;124.07;61.58;;;;;;;0.68;81.05;100512.80;126696;1098;26458;-77
2020/12/15 05:34:30;;;;;;;108.07;57.85;;;;;;;0.67;81.04;100501.20;126714;1098;23377;-78
2020/12/15 05:37:18;;;;;;;101.90;57.85;;;;;;;0.67;81.09;100489.62;126485;1099;23524;-77
2020/12/15 05:40:05;;;;;;;121.75;63.35;;;;;;;0.65;80.77;100494.27;126723;1098;23362;-77
2020/12/15 05:42:54;;;;;;;100.22;58.75;;;;;;;0.64;80.98;100495.22;126681;1098;26381;-77
2020/12/15 05:45:23;;;;;;;99.70;56.92;;;;;;;0.65;81.10;100496.95;126749;1098;27387;-77
2020/12/15 05:48:12;;;;;;;110.33;59.30;;;;;;;0.64;80.93;100490.73;126658;1098;23382;-79
2020/12/15 05:50:57;;;;;;;105.07;60.35;;;;;;;0.64;80.76;100497.91;126603;1098;23491;-78
2020/12/15 05:53:26;;;;;;;117.35;62.30;;;;;;;0.62;80.96;100500.73;127524;1099;24805;-76
2020/12/15 05:55:55;;;;;;;113.08;57.30;;;;;;;0.62;81.00;100511.47;126721;1098;23377;-77
2020/12/15 05:58:23;;;;;;;98.15;55.63;;;;;;;0.62;80.99;100500.73;126612;1098;23622;-76
2020/12/15 06:00:51;;;;;;;116.30;59.90;;;;;;;0.60;81.07;100487.42;126684;1098;26833;-76
2020/12/15 06:03:20;;;;;;;106.63;59.55;;;;;;;0.61;81.07;100496.33;126709;1099;23395;-77
2020/12/15 06:05:54;;;;;;;112.12;64.32;;;;;;;0.60;80.78;100494.64;126651;1098;23367;-76
2020/12/15 06:08:23;;;;;;;111.30;61.73;;;;;;;0.59;80.80;100498.28;126647;1098;26408;-76
2020/12/15 06:10:52;;;;;;;95.57;55.52;;;;;;;0.58;80.71;100497.44;126613;1098;23533;-76
2020/12/15 06:13:21;;;;;;;107.63;61.18;;;;;;;0.56;80.79;100494.02;126662;1098;23328;-77
2020/12/15 06:15:51;;;;;;;105.22;57.23;;;;;;;0.55;81.10;100484.24;126750;1099;26859;-77
2020/12/15 06:18:23;;;;;;;100.10;60.05;;;;;;;0.55;80.76;100492.30;126618;1098;23363;-75
2020/12/15 06:20:51;;;;;;;106.33;59.07;;;;;;;0.56;80.97;100488.65;126639;1098;23793;-75
2020/12/15 06:23:19;;;;;;;122.72;66.72;;;;;;;0.55;81.00;100486.92;126648;1098;23545;-76
2020/12/15 06:25:48;;;;;;;103.45;57.90;;;;;;;0.56;81.00;100493.17;126667;1098;23789;-76
2020/12/15 06:28:16;;;;;;;109.60;59.77;;;;;;;0.57;81.13;100487.66;126301;1099;26382;-77
2020/12/15 06:30:46;;;;;;;112.40;58.55;;;;;;;0.61;81.10;100485.59;126744;1099;23398;-77
2020/12/15 06:33:15;;;;;;;111.62;62.58;;;;;;;0.61;81.14;100488.27;126864;1098;23428;-79
2020/12/15 06:35:48;;;;;;;109.72;61.45;;;;;;;0.62;81.11;100490.00;126687;1099;23469;-76
2020/12/15 06:38:19;;;;;;;105.87;57.67;;;;;;;0.61;81.04;100490.95;126675;1098;23392;-76
2020/12/15 06:40:50;;;;;;;93.67;51.03;;;;;;;0.61;81.13;100494.48;126615;1098;23336;-76
2020/12/15 06:43:30;;;;;;;90.65;50.78;;;;;;;0.60;81.18;100495.48;126680;1098;23327;-76
2020/12/15 06:46:12;;;;;;;83.70;51.57;;;;;;;0.59;80.84;100503.65;126356;1099;23382;-76
2020/12/15 06:48:45;;;;;;;99.90;55.73;;;;;;;0.61;81.15;100509.75;126704;1098;23793;-76
2020/12/15 06:51:13;;;;;;;88.42;51.18;;;;;;;0.61;81.06;100505.23;126266;1099;23375;-76
2020/12/15 06:53:43;;;;;;;82.77;47.20;;;;;;;0.61;81.02;100502.54;126699;1098;23440;-76
2020/12/15 06:56:13;;;;;;;90.13;50.97;;;;;;;0.60;81.18;100498.17;126268;1099;23786;-76
2020/12/15 06:58:42;;;;;;;112.03;60.15;;;;;;;0.60;81.19;100495.48;126608;1098;23424;-76
2020/12/15 07:01:22;;;;;;;210.38;118.75;;;;;;;0.60;80.96;100505.37;126596;1098;26597;-77
2020/12/15 07:03:56;;;;;;;139.20;75.57;;;;;;;0.59;81.23;100500.97;126726;1098;23386;-77
2020/12/15 07:06:28;;;;;;;85.22;49.63;;;;;;;0.60;81.04;100502.69;126736;1098;27257;-77
2020/12/15 07:08:58;;;;;;;;;;;;;;;0.59;81.31;100499.13;126699;1098;23533;-78
2020/12/15 07:11:28;;;;;;;98.47;54.67;;;;;;;0.57;81.37;100503.77;126609;1099;21492;-77
2020/12/15 07:14:04;;;;;;;92.88;52.78;;;;;;;0.59;81.12;100503.65;126632;1098;26437;-76
2020/12/15 07:16:32;;;;;;;90.32;52.80;;;;;;;0.61;81.18;100505.23;126612;1099;23392;-76
2020/12/15 07:19:01;;;;;;;97.95;51.40;;;;;;;0.65;81.26;100507.69;126609;1098;26990;-76
2020/12/15 07:21:31;;;;;;;81.17;45.92;;;;;;;0.68;81.42;100504.73;126617;1098;23585;-81
2020/12/15 07:24:01;;;;;;;79.62;46.13;;;;;;;0.70;81.56;100497.41;126474;1098;23424;-77
2020/12/15 07:26:30;;;;;;;82.10;48.98;;;;;;;0.72;81.39;100498.98;126564;1098;23382;-76
2020/12/15 07:28:58;;;;;;;100.87;54.90;;;;;;;0.74;81.24;100505.09;126560;1098;27787;-78
2020/12/15 07:31:30;;;;;;;79.60;46.00;;;;;;;0.78;81.27;100503.02;126602;1098;23678;-77
2020/12/15 07:34:10;;;;;;;78.87;45.95;;;;;;;0.80;81.36;100511.80;126687;1098;23365;-78
2020/12/15 07:36:42;;;;;;;72.70;42.87;;;;;;;0.80;81.37;100511.80;126693;1099;23533;-77
2020/12/15 07:39:11;;;;;;;70.57;42.77;;;;;;;0.80;81.29;100504.59;126634;1098;23328;-77
2020/12/15 07:41:39;;;;;;;66.82;38.40;;;;;;;0.82;81.24;100496.42;126521;1098;23471;-77
2020/12/15 07:44:14;;;;;;;64.12;39.50;;;;;;;0.84;81.31;100504.36;126697;1098;23382;-77
2020/12/15 07:46:45;;;;;;;64.97;39.83;;;;;;;0.88;81.37;100505.83;126634;1098;23382;-77
2020/12/15 07:49:17;;;;;;;77.72;45.48;;;;;;;0.91;81.22;100508.24;126639;1098;26500;-77
2020/12/15 07:51:45;;;;;;;83.07;49.53;;;;;;;0.93;81.53;100501.76;126619;1098;23333;-77
2020/12/15 07:54:13;;;;;;;138.77;69.60;;;;;;;0.99;81.66;100505.78;126766;1098;23330;-77
2020/12/15 07:56:47;;;;;;;129.80;62.17;;;;;;;1.06;81.48;100506.13;126557;1098;23325;-77
2020/12/15 07:59:16;;;;;;;87.90;45.55;;;;;;;1.10;81.55;100503.06;126307;1099;24833;-76
2020/12/15 08:01:44;;;;;;;100.92;47.05;;;;;;;1.15;81.60;100502.67;126485;1098;26382;-77
2020/12/15 08:04:15;;;;;;;67.40;37.15;;;;;;;1.21;81.65;100500.33;126670;1099;23476;-77
2020/12/15 08:06:49;;;;;;;61.70;40.00;;;;;;;1.27;81.47;100509.73;126637;1098;23336;-78
2020/12/15 08:09:17;;;;;;;66.10;39.83;;;;;;;1.32;81.23;100498.58;126345;1099;23536;-77
2020/12/15 08:11:49;;;;;;;62.80;35.57;;;;;;;1.37;81.31;100504.45;126579;1098;27245;-76
2020/12/15 08:14:17;;;;;;;72.95;41.63;;;;;;;1.46;81.62;100500.12;126581;1098;23397;-78
2020/12/15 08:16:47;;;;;;;72.22;41.35;;;;;;;1.50;81.25;100504.27;126597;1099;26434;-78
2020/12/15 08:19:16;;;;;;;77.65;44.50;;;;;;;1.54;81.30;100511.09;126658;1099;23395;-76
2020/12/15 08:21:50;;;;;;;79.87;39.65;;;;;;;1.59;81.56;100511.55;126590;1098;23328;-78
2020/12/15 08:24:26;;;;;;;67.20;36.70;;;;;;;1.60;80.95;100519.49;126673;1098;26430;-78
2020/12/15 08:26:54;;;;;;;52.60;30.72;;;;;;;1.60;80.89;100516.80;126611;1098;23802;-77
2020/12/15 08:29:28;;;;;;;61.70;34.80;;;;;;;1.63;80.94;100516.53;126650;1098;23397;-76
2020/12/15 08:31:57;;;;;;;46.37;27.67;;;;;;;1.68;81.06;100513.45;126700;1098;23462;-77
2020/12/15 08:34:26;;;;;;;57.13;33.77;;;;;;;1.73;80.96;100513.93;126514;1098;23403;-77
2020/12/15 08:36:54;;;;;;;55.48;32.13;;;;;;;1.79;80.95;100509.84;126625;1099;23327;-77
2020/12/15 08:39:30;;;;;;;62.58;36.83;;;;;;;1.82;80.84;100499.69;126639;1098;23391;-77
2020/12/15 08:41:59;;;;;;;46.83;25.48;;;;;;;1.86;80.73;100496.72;126595;1098;23335;-76
2020/12/15 08:44:29;;;;;;;66.93;40.77;;;;;;;1.90;80.76;100492.78;126804;1098;23328;-78
2020/12/15 08:46:58;;;;;;;103.83;54.90;;;;;;;1.96;80.70;100506.59;126556;1099;23445;-81
2020/12/15 08:49:27;;;;;;;72.33;38.53;;;;;;;2.00;80.72;100501.77;126766;1098;26789;-76
2020/12/15 08:51:56;;;;;;;51.53;29.55;;;;;;;2.04;80.56;100503.21;126537;1098;26836;-77
2020/12/15 08:54:24;;;;;;;59.05;32.40;;;;;;;2.09;80.55;100500.99;126785;1098;26810;-80
2020/12/15 08:56:52;;;;;;;59.17;34.97;;;;;;;2.14;80.36;100490.67;126831;1098;23365;-77
2020/12/15 08:59:23;;;;;;;56.73;34.30;;;;;;;2.21;80.64;100491.83;126608;1098;23340;-78
2020/12/15 09:01:59;;;;;;;50.20;29.90;;;;;;;2.30;80.54;100492.02;126581;1098;23757;-76
2020/12/15 09:04:28;;;;;;;57.38;31.15;;;;;;;2.36;80.59;100496.86;126786;1098;23328;-76
2020/12/15 09:06:57;;;;;;;59.15;36.15;;;;;;;2.42;80.21;100507.09;126625;1099;23333;-76
2020/12/15 09:09:30;;;;;;;48.58;30.40;;;;;;;2.49;80.50;100508.25;126634;1098;25045;-78
2020/12/15 09:11:59;;;;;;;50.95;31.68;;;;;;;2.59;80.48;100514.53;126380;1098;27897;-77
2020/12/15 09:14:28;;;;;;;43.13;26.82;;;;;;;2.70;80.20;100518.12;126678;1098;23328;-77
2020/12/15 09:16:56;;;;;;;49.65;30.23;;;;;;;2.81;80.07;100520.70;126624;1098;23386;-75
2020/12/15 09:19:27;;;;;;;58.25;34.75;;;;;;;2.90;80.33;100513.62;126579;1098;23346;-76
2020/12/15 09:22:02;;;;;;;45.00;29.77;;;;;;;3.01;80.01;100514.38;126652;1099;26568;-77
2020/12/15 09:24:34;;;;;;;46.70;29.02;;;;;;;3.14;80.50;100518.66;126586;1098;25427;-77
2020/12/15 09:27:03;;;;;;;47.25;31.15;;;;;;;3.28;80.12;100516.38;126646;1098;23321;-75
2020/12/15 09:29:31;;;;;;;43.47;26.80;;;;;;;3.42;80.08;100503.50;126625;1098;23382;-76
2020/12/15 09:32:01;;;;;;;44.00;29.10;;;;;;;3.53;79.81;100494.41;126632;1098;23339;-77
2020/12/15 09:34:31;;;;;;;43.60;28.00;;;;;;;3.64;80.00;100489.70;126788;1098;25210;-76
2020/12/15 09:37:00;;;;;;;59.50;35.63;;;;;;;3.77;79.95;100491.27;126619;1098;23669;-76
2020/12/15 09:39:31;;;;;;;51.00;32.58;;;;;;;3.85;79.54;100494.09;126602;1098;23488;-76
2020/12/15 09:42:03;;;;;;;46.00;28.93;;;;;;;3.93;78.77;100493.38;126678;1098;23478;-75
2020/12/15 09:44:32;;;;;;;51.65;31.10;;;;;;;4.01;78.72;100490.78;126629;1099;23373;-77
2020/12/15 09:47:04;;;;;;;57.20;32.27;;;;;;;4.07;78.77;100492.91;126680;1098;23395;-76
2020/12/15 09:49:34;;;;;;;70.90;37.33;;;;;;;4.06;78.18;100493.91;126603;1098;23389;-75
2020/12/15 09:52:02;;;;;;;52.75;30.65;;;;;;;4.07;77.82;100490.20;126615;1098;23381;-75
2020/12/15 09:54:32;;;;;;;68.83;41.00;;;;;;;4.07;77.71;100488.34;126672;1098;23370;-77
2020/12/15 09:57:00;;;;;;;54.13;34.20;;;;;;;4.12;77.85;100487.05;126617;1098;23479;-76
2020/12/15 09:59:29;;;;;;;59.53;33.28;;;;;;;4.16;78.00;100488.47;126625;1098;23469;-75
2020/12/15 10:01:58;;;;;;;52.83;30.82;;;;;;;4.24;77.96;100478.63;126636;1098;26821;-76
2020/12/15 10:04:27;;;;;;;51.55;29.77;;;;;;;4.24;77.48;100478.63;126579;1098;23424;-76
2020/12/15 10:06:56;;;;;;;43.98;25.92;;;;;;;4.20;76.66;100470.98;126625;1098;25060;-79
2020/12/15 10:09:24;;;;;;;41.98;26.77;;;;;;;4.15;76.40;100474.13;126685;1098;23328;-79
2020/12/15 10:11:52;;;;;;;37.73;25.23;;;;;;;4.20;76.75;100477.22;126731;1098;23393;-78
2020/12/15 10:14:20;;;;;;;47.13;29.30;;;;;;;4.25;76.66;100472.25;126848;1098;23438;-79
2020/12/15 10:16:48;;;;;;;55.43;33.20;;;;;;;4.36;77.11;100473.91;126709;1098;23369;-78
2020/12/15 10:19:17;;;;;;;55.60;35.95;;;;;;;4.45;76.68;100464.91;126654;1098;25505;-76
2020/12/15 10:21:45;;;;;;;38.65;27.95;;;;;;;4.49;76.31;100468.17;126671;1098;23467;-76
2020/12/15 10:24:15;;;;;;;44.15;29.63;;;;;;;4.53;76.69;100461.47;126727;1098;23495;-75
2020/12/15 10:26:44;;;;;;;41.63;27.42;;;;;;;4.55;76.27;100467.58;126827;1099;24997;-73
2020/12/15 10:29:12;;;;;;;44.88;29.48;;;;;;;4.54;76.10;100468.56;126774;1098;23382;-75
2020/12/15 10:31:46;;;;;;;45.83;29.60;;;;;;;4.53;75.88;100458.77;126738;1098;23391;-75
2020/12/15 10:34:15;;;;;;;49.95;28.75;;;;;;;4.52;75.48;100461.61;126723;1098;26314;-76
2020/12/15 10:36:47;;;;;;;60.38;44.65;;;;;;;4.56;75.53;100455.75;126638;1098;26405;-74
2020/12/15 10:39:17;;;;;;;46.63;31.33;;;;;;;4.63;76.11;100448.77;126708;1098;24834;-75
2020/12/15 10:41:45;;;;;;;49.63;30.97;;;;;;;4.72;75.86;100443.47;126753;1098;23399;-76
2020/12/15 10:44:16;;;;;;;47.38;31.50;;;;;;;4.71;75.27;100445.29;126735;1099;24875;-76
2020/12/15 10:46:45;;;;;;;49.48;35.60;;;;;;;4.73;75.17;100445.99;126652;1098;25393;-77
2020/12/15 10:49:16;;;;;;;36.70;25.12;;;;;;;4.79;75.55;100449.95;126682;1098;24679;-77
2020/12/15 10:51:49;;;;;;;40.17;25.80;;;;;;;4.86;75.54;100459.98;126625;1099;24146;-76
2020/12/15 10:54:18;;;;;;;49.15;34.10;;;;;;;4.94;75.58;100443.02;126700;1098;23487;-79
2020/12/15 10:56:46;;;;;;;46.35;27.82;;;;;;;5.08;75.57;100442.50;126637;1098;23396;-74
2020/12/15 10:59:15;;;;;;;51.53;31.68;;;;;;;5.19;75.35;100459.50;126889;1098;23382;-72
2020/12/15 11:01:43;;;;;;;50.88;31.65;;;;;;;5.30;75.70;100454.70;126821;1099;23466;-73
2020/12/15 11:04:11;;;;;;;52.97;35.13;;;;;;;5.68;76.66;100459.94;126741;1098;23336;-71
2020/12/15 11:06:41;;;;;;;89.85;59.18;;;;;;;6.11;76.79;100466.36;126644;1098;23378;-73
2020/12/15 11:09:10;;;;;;;47.85;30.23;;;;;;;6.20;75.18;100459.97;126744;1098;23440;-73
2020/12/15 11:11:38;;;;;;;47.90;31.80;;;;;;;6.32;75.02;100461.40;126805;1098;23418;-71
2020/12/15 11:14:07;;;;;;;83.15;43.87;;;;;;;6.60;75.12;100454.93;126745;1098;23333;-72
2020/12/15 11:16:51;;;;;;;74.82;42.33;;;;;;;6.91;74.73;100463.32;126757;1098;23342;-73
2020/12/15 11:19:20;;;;;;;51.88;35.03;;;;;;;7.16;74.94;100445.25;126851;1098;23358;-71
2020/12/15 11:21:51;;;;;;;43.37;29.03;;;;;;;7.28;73.19;100446.63;126788;1098;23423;-73
2020/12/15 11:24:19;;;;;;;52.73;30.35;;;;;;;7.23;72.52;100450.84;126878;1098;23340;-73
2020/12/15 11:26:52;;;;;;;42.38;30.12;;;;;;;7.12;71.82;100460.16;126770;1098;23395;-73